sensor_id;sensor_type;location;lat;lon;timestamp;temperature;humidity
17421;DHT22;8828;48.800;9.540;2022-11-15T00:01:15;9.60;99.90
17421;DHT22;8828;48.800;9.540;2022-11-15T00:03:43;9.60;99.90
17421;DHT22;8828;48.800;9.540;2022-11-15T00:06:12;9.60;99.90
17421;DHT22;8828;48.800;9.540;2022-11-15T00:08:40;9.60;99.90
17421;DHT22;8828;48.800;9.540;2022-11-15T00:11:10;9.60;99.90
17421;DHT22;8828;48.800;9.540;2022-11-15T00:13:39;9.60;99.90
17421;DHT22;8828;48.800;9.540;2022-11-15T00:16:09;9.60;99.90
17421;DHT22;8828;48.800;9.540;2022-11-15T00:18:37;9.60;99.90
17421;DHT22;8828;48.800;9.540;2022-11-15T00:21:07;9.60;99.90
17421;DHT22;8828;48.800;9.540;2022-11-15T00:23:35;9.60;99.90
17421;DHT22;8828;48.800;9.540;2022-11-15T00:26:04;9.70;99.90
17421;DHT22;8828;48.800;9.540;2022-11-15T00:28:32;9.60;99.90
17421;DHT22;8828;48.800;9.540;2022-11-15T00:31:01;9.60;99.90
17421;DHT22;8828;48.800;9.540;2022-11-15T00:33:30;9.70;99.90
17421;DHT22;8828;48.800;9.540;2022-11-15T00:36:02;9.70;99.90
17421;DHT22;8828;48.800;9.540;2022-11-15T00:38:32;9.60;99.90
17421;DHT22;8828;48.800;9.540;2022-11-15T00:41:01;9.70;99.90
17421;DHT22;8828;48.800;9.540;2022-11-15T00:43:35;9.70;99.90
17421;DHT22;8828;48.800;9.540;2022-11-15T00:46:05;9.60;99.90
17421;DHT22;8828;48.800;9.540;2022-11-15T00:48:34;9.60;99.90
17421;DHT22;8828;48.800;9.540;2022-11-15T00:51:02;9.60;99.90
17421;DHT22;8828;48.800;9.540;2022-11-15T00:53:30;9.60;99.90
17421;DHT22;8828;48.800;9.540;2022-11-15T00:55:58;9.60;99.90
17421;DHT22;8828;48.800;9.540;2022-11-15T00:58:26;9.60;99.90
17421;DHT22;8828;48.800;9.540;2022-11-15T01:00:54;9.60;99.90
17421;DHT22;8828;48.800;9.540;2022-11-15T01:03:23;9.60;99.90
17421;DHT22;8828;48.800;9.540;2022-11-15T01:05:51;9.60;99.90
17421;DHT22;8828;48.800;9.540;2022-11-15T01:08:19;9.60;99.90
17421;DHT22;8828;48.800;9.540;2022-11-15T01:10:47;9.60;99.90
17421;DHT22;8828;48.800;9.540;2022-11-15T01:13:15;9.60;99.90
17421;DHT22;8828;48.800;9.540;2022-11-15T01:15:43;9.60;99.90
17421;DHT22;8828;48.800;9.540;2022-11-15T01:18:11;9.60;99.90
17421;DHT22;8828;48.800;9.540;2022-11-15T01:20:40;9.60;99.90
17421;DHT22;8828;48.800;9.540;2022-11-15T01:23:09;9.60;99.90
17421;DHT22;8828;48.800;9.540;2022-11-15T01:25:37;9.50;99.90
17421;DHT22;8828;48.800;9.540;2022-11-15T01:28:05;9.50;99.90
17421;DHT22;8828;48.800;9.540;2022-11-15T01:30:33;9.50;99.90
17421;DHT22;8828;48.800;9.540;2022-11-15T01:33:03;9.50;99.90
17421;DHT22;8828;48.800;9.540;2022-11-15T01:35:31;9.40;99.90
17421;DHT22;8828;48.800;9.540;2022-11-15T01:38:00;9.40;99.90
17421;DHT22;8828;48.800;9.540;2022-11-15T01:40:28;9.40;99.90
17421;DHT22;8828;48.800;9.540;2022-11-15T01:42:56;9.30;99.90
17421;DHT22;8828;48.800;9.540;2022-11-15T01:45:24;9.30;99.90
17421;DHT22;8828;48.800;9.540;2022-11-15T01:47:53;9.20;99.90
17421;DHT22;8828;48.800;9.540;2022-11-15T01:50:26;9.20;99.90
17421;DHT22;8828;48.800;9.540;2022-11-15T01:52:57;9.10;99.90
17421;DHT22;8828;48.800;9.540;2022-11-15T01:55:27;9.10;99.90
17421;DHT22;8828;48.800;9.540;2022-11-15T01:57:59;9.00;99.90
17421;DHT22;8828;48.800;9.540;2022-11-15T02:00:28;9.00;99.90
17421;DHT22;8828;48.800;9.540;2022-11-15T02:02:56;9.00;99.90
17421;DHT22;8828;48.800;9.540;2022-11-15T02:05:25;8.90;99.90
17421;DHT22;8828;48.800;9.540;2022-11-15T02:07:53;8.90;99.90
17421;DHT22;8828;48.800;9.540;2022-11-15T02:10:23;8.80;99.90
17421;DHT22;8828;48.800;9.540;2022-11-15T02:12:53;8.80;99.90
17421;DHT22;8828;48.800;9.540;2022-11-15T02:15:24;8.80;99.90
17421;DHT22;8828;48.800;9.540;2022-11-15T02:18:11;8.70;99.90
17421;DHT22;8828;48.800;9.540;2022-11-15T02:20:52;8.70;99.90
17421;DHT22;8828;48.800;9.540;2022-11-15T02:29:24;8.60;99.90
17421;DHT22;8828;48.800;9.540;2022-11-15T02:32:03;8.60;99.90
17421;DHT22;8828;48.800;9.540;2022-11-15T02:34:41;8.50;99.90
17421;DHT22;8828;48.800;9.540;2022-11-15T02:37:16;8.50;99.90
17421;DHT22;8828;48.800;9.540;2022-11-15T02:39:50;8.50;99.90
17421;DHT22;8828;48.800;9.540;2022-11-15T02:42:25;8.50;99.90
17421;DHT22;8828;48.800;9.540;2022-11-15T02:45:13;8.40;99.90
17421;DHT22;8828;48.800;9.540;2022-11-15T02:47:48;8.40;99.90
17421;DHT22;8828;48.800;9.540;2022-11-15T02:50:20;8.40;99.90
17421;DHT22;8828;48.800;9.540;2022-11-15T02:52:49;8.40;99.90
17421;DHT22;8828;48.800;9.540;2022-11-15T02:55:29;8.40;99.90
17421;DHT22;8828;48.800;9.540;2022-11-15T02:58:17;8.30;99.90
17421;DHT22;8828;48.800;9.540;2022-11-15T03:00:50;8.30;99.90
17421;DHT22;8828;48.800;9.540;2022-11-15T03:03:40;8.30;99.90
17421;DHT22;8828;48.800;9.540;2022-11-15T03:06:20;8.30;99.90
17421;DHT22;8828;48.800;9.540;2022-11-15T03:08:57;8.30;99.90
17421;DHT22;8828;48.800;9.540;2022-11-15T03:11:29;8.30;99.90
17421;DHT22;8828;48.800;9.540;2022-11-15T03:14:06;8.30;99.90
17421;DHT22;8828;48.800;9.540;2022-11-15T03:16:38;8.30;99.90
17421;DHT22;8828;48.800;9.540;2022-11-15T03:19:13;8.30;99.90
17421;DHT22;8828;48.800;9.540;2022-11-15T03:21:41;8.30;99.90
17421;DHT22;8828;48.800;9.540;2022-11-15T03:24:10;8.30;99.90
17421;DHT22;8828;48.800;9.540;2022-11-15T03:26:41;8.30;99.90
17421;DHT22;8828;48.800;9.540;2022-11-15T03:29:13;8.30;99.90
17421;DHT22;8828;48.800;9.540;2022-11-15T03:31:44;8.30;99.90
17421;DHT22;8828;48.800;9.540;2022-11-15T03:34:25;8.30;99.90
17421;DHT22;8828;48.800;9.540;2022-11-15T03:36:55;8.40;99.90
17421;DHT22;8828;48.800;9.540;2022-11-15T03:39:24;8.40;99.90
17421;DHT22;8828;48.800;9.540;2022-11-15T03:41:59;8.40;99.90
17421;DHT22;8828;48.800;9.540;2022-11-15T03:44:36;8.40;99.90
17421;DHT22;8828;48.800;9.540;2022-11-15T03:47:09;8.40;99.90
17421;DHT22;8828;48.800;9.540;2022-11-15T03:49:43;8.40;99.90
17421;DHT22;8828;48.800;9.540;2022-11-15T03:52:11;8.40;99.90
17421;DHT22;8828;48.800;9.540;2022-11-15T03:54:48;8.40;99.90
17421;DHT22;8828;48.800;9.540;2022-11-15T03:57:16;8.40;99.90
17421;DHT22;8828;48.800;9.540;2022-11-15T03:59:44;8.40;99.90
17421;DHT22;8828;48.800;9.540;2022-11-15T04:02:12;8.40;99.90
17421;DHT22;8828;48.800;9.540;2022-11-15T04:04:41;8.40;99.90
17421;DHT22;8828;48.800;9.540;2022-11-15T04:07:09;8.40;99.90
17421;DHT22;8828;48.800;9.540;2022-11-15T04:09:38;8.30;99.90
17421;DHT22;8828;48.800;9.540;2022-11-15T04:12:26;8.40;99.90
17421;DHT22;8828;48.800;9.540;2022-11-15T04:14:59;8.30;99.90
17421;DHT22;8828;48.800;9.540;2022-11-15T04:17:38;8.40;99.90
17421;DHT22;8828;48.800;9.540;2022-11-15T04:20:11;8.40;99.90
17421;DHT22;8828;48.800;9.540;2022-11-15T04:23:08;8.40;99.90
17421;DHT22;8828;48.800;9.540;2022-11-15T04:25:55;8.40;99.90
17421;DHT22;8828;48.800;9.540;2022-11-15T04:28:23;8.40;99.90
17421;DHT22;8828;48.800;9.540;2022-11-15T04:30:51;8.40;99.90
17421;DHT22;8828;48.800;9.540;2022-11-15T04:33:19;8.40;99.90
17421;DHT22;8828;48.800;9.540;2022-11-15T04:35:49;8.40;99.90
17421;DHT22;8828;48.800;9.540;2022-11-15T04:38:31;8.40;99.90
17421;DHT22;8828;48.800;9.540;2022-11-15T04:40:58;8.40;99.90
17421;DHT22;8828;48.800;9.540;2022-11-15T04:43:27;8.40;99.90
17421;DHT22;8828;48.800;9.540;2022-11-15T04:45:55;8.40;99.90
17421;DHT22;8828;48.800;9.540;2022-11-15T04:48:23;8.40;99.90
17421;DHT22;8828;48.800;9.540;2022-11-15T04:50:52;8.40;99.90
17421;DHT22;8828;48.800;9.540;2022-11-15T04:53:20;8.40;99.90
17421;DHT22;8828;48.800;9.540;2022-11-15T04:55:48;8.40;99.90
17421;DHT22;8828;48.800;9.540;2022-11-15T04:58:16;8.50;99.90
17421;DHT22;8828;48.800;9.540;2022-11-15T05:00:44;8.50;99.90
17421;DHT22;8828;48.800;9.540;2022-11-15T05:03:11;8.50;99.90
17421;DHT22;8828;48.800;9.540;2022-11-15T05:05:59;8.40;99.90
17421;DHT22;8828;48.800;9.540;2022-11-15T05:08:26;8.40;99.90
17421;DHT22;8828;48.800;9.540;2022-11-15T05:10:54;8.40;99.90
17421;DHT22;8828;48.800;9.540;2022-11-15T05:13:22;8.40;99.90
17421;DHT22;8828;48.800;9.540;2022-11-15T05:15:50;8.50;99.90
17421;DHT22;8828;48.800;9.540;2022-11-15T05:18:18;8.50;99.90
17421;DHT22;8828;48.800;9.540;2022-11-15T05:20:49;8.50;99.90
17421;DHT22;8828;48.800;9.540;2022-11-15T05:23:18;8.50;99.90
17421;DHT22;8828;48.800;9.540;2022-11-15T05:25:46;8.40;99.90
17421;DHT22;8828;48.800;9.540;2022-11-15T05:28:14;8.40;99.90
17421;DHT22;8828;48.800;9.540;2022-11-15T05:30:42;8.40;99.90
17421;DHT22;8828;48.800;9.540;2022-11-15T05:33:10;8.40;99.90
17421;DHT22;8828;48.800;9.540;2022-11-15T05:35:40;8.40;99.90
17421;DHT22;8828;48.800;9.540;2022-11-15T05:38:09;8.40;99.90
17421;DHT22;8828;48.800;9.540;2022-11-15T05:40:38;8.40;99.90
17421;DHT22;8828;48.800;9.540;2022-11-15T05:43:06;8.30;99.90
17421;DHT22;8828;48.800;9.540;2022-11-15T05:45:35;8.30;99.90
17421;DHT22;8828;48.800;9.540;2022-11-15T05:48:06;8.30;99.90
17421;DHT22;8828;48.800;9.540;2022-11-15T05:50:42;8.20;99.90
17421;DHT22;8828;48.800;9.540;2022-11-15T05:53:12;8.30;99.90
17421;DHT22;8828;48.800;9.540;2022-11-15T05:55:42;8.30;99.90
17421;DHT22;8828;48.800;9.540;2022-11-15T05:58:10;8.20;99.90
17421;DHT22;8828;48.800;9.540;2022-11-15T06:00:38;8.20;99.90
17421;DHT22;8828;48.800;9.540;2022-11-15T06:03:06;8.20;99.90
17421;DHT22;8828;48.800;9.540;2022-11-15T06:05:34;8.20;99.90
17421;DHT22;8828;48.800;9.540;2022-11-15T06:08:02;8.20;99.90
17421;DHT22;8828;48.800;9.540;2022-11-15T06:10:30;8.20;99.90
17421;DHT22;8828;48.800;9.540;2022-11-15T06:13:00;8.20;99.90
17421;DHT22;8828;48.800;9.540;2022-11-15T06:15:28;8.20;99.90
17421;DHT22;8828;48.800;9.540;2022-11-15T06:17:57;8.20;99.90
17421;DHT22;8828;48.800;9.540;2022-11-15T06:20:25;8.10;99.90
17421;DHT22;8828;48.800;9.540;2022-11-15T06:22:56;8.10;99.90
17421;DHT22;8828;48.800;9.540;2022-11-15T06:25:25;8.10;99.90
17421;DHT22;8828;48.800;9.540;2022-11-15T06:27:53;8.10;99.90
17421;DHT22;8828;48.800;9.540;2022-11-15T06:30:24;8.00;99.90
17421;DHT22;8828;48.800;9.540;2022-11-15T06:32:58;8.00;99.90
17421;DHT22;8828;48.800;9.540;2022-11-15T06:35:26;8.00;99.90
17421;DHT22;8828;48.800;9.540;2022-11-15T06:37:54;8.00;99.90
17421;DHT22;8828;48.800;9.540;2022-11-15T06:40:22;8.00;99.90
17421;DHT22;8828;48.800;9.540;2022-11-15T06:42:50;8.00;99.90
17421;DHT22;8828;48.800;9.540;2022-11-15T06:45:18;7.90;99.90
17421;DHT22;8828;48.800;9.540;2022-11-15T06:47:47;7.90;99.90
17421;DHT22;8828;48.800;9.540;2022-11-15T06:50:15;7.90;99.90
17421;DHT22;8828;48.800;9.540;2022-11-15T06:52:43;7.90;99.90
17421;DHT22;8828;48.800;9.540;2022-11-15T06:55:11;7.90;99.90
17421;DHT22;8828;48.800;9.540;2022-11-15T06:57:46;7.90;99.90
17421;DHT22;8828;48.800;9.540;2022-11-15T07:00:15;7.90;99.90
17421;DHT22;8828;48.800;9.540;2022-11-15T07:02:44;7.80;99.90
17421;DHT22;8828;48.800;9.540;2022-11-15T07:05:14;7.80;99.90
17421;DHT22;8828;48.800;9.540;2022-11-15T07:07:42;7.90;99.90
17421;DHT22;8828;48.800;9.540;2022-11-15T07:10:10;7.90;99.90
17421;DHT22;8828;48.800;9.540;2022-11-15T07:12:37;7.90;99.90
17421;DHT22;8828;48.800;9.540;2022-11-15T07:15:06;7.90;99.90
17421;DHT22;8828;48.800;9.540;2022-11-15T07:17:34;7.90;99.90
17421;DHT22;8828;48.800;9.540;2022-11-15T07:20:03;7.90;99.90
17421;DHT22;8828;48.800;9.540;2022-11-15T07:22:32;7.90;99.90
17421;DHT22;8828;48.800;9.540;2022-11-15T07:25:00;7.90;99.90
17421;DHT22;8828;48.800;9.540;2022-11-15T07:27:28;7.90;99.90
17421;DHT22;8828;48.800;9.540;2022-11-15T07:29:56;7.90;99.90
17421;DHT22;8828;48.800;9.540;2022-11-15T07:32:25;8.00;99.90
17421;DHT22;8828;48.800;9.540;2022-11-15T07:34:52;8.00;99.90
17421;DHT22;8828;48.800;9.540;2022-11-15T07:37:20;8.10;99.90
17421;DHT22;8828;48.800;9.540;2022-11-15T07:39:50;8.10;99.90
17421;DHT22;8828;48.800;9.540;2022-11-15T07:42:18;8.10;99.90
17421;DHT22;8828;48.800;9.540;2022-11-15T07:45:04;8.20;99.90
17421;DHT22;8828;48.800;9.540;2022-11-15T07:47:32;8.20;99.90
17421;DHT22;8828;48.800;9.540;2022-11-15T07:50:00;8.20;99.90
17421;DHT22;8828;48.800;9.540;2022-11-15T07:52:28;8.20;99.90
17421;DHT22;8828;48.800;9.540;2022-11-15T07:54:57;8.30;99.90
17421;DHT22;8828;48.800;9.540;2022-11-15T07:57:25;8.30;99.90
17421;DHT22;8828;48.800;9.540;2022-11-15T07:59:53;8.30;99.90
17421;DHT22;8828;48.800;9.540;2022-11-15T08:02:21;8.40;99.90
17421;DHT22;8828;48.800;9.540;2022-11-15T08:04:55;8.50;99.90
17421;DHT22;8828;48.800;9.540;2022-11-15T08:07:23;8.50;99.90
17421;DHT22;8828;48.800;9.540;2022-11-15T08:09:51;8.60;99.90
17421;DHT22;8828;48.800;9.540;2022-11-15T08:12:21;8.70;99.90
17421;DHT22;8828;48.800;9.540;2022-11-15T08:14:49;8.80;99.90
17421;DHT22;8828;48.800;9.540;2022-11-15T08:17:17;8.90;99.90
17421;DHT22;8828;48.800;9.540;2022-11-15T08:19:45;9.00;99.90
17421;DHT22;8828;48.800;9.540;2022-11-15T08:22:13;9.20;99.90
17421;DHT22;8828;48.800;9.540;2022-11-15T08:24:41;9.40;99.90
17421;DHT22;8828;48.800;9.540;2022-11-15T08:27:09;9.60;99.90
17421;DHT22;8828;48.800;9.540;2022-11-15T08:29:44;9.80;99.90
17421;DHT22;8828;48.800;9.540;2022-11-15T08:32:12;10.00;99.90
17421;DHT22;8828;48.800;9.540;2022-11-15T08:34:40;10.30;99.90
17421;DHT22;8828;48.800;9.540;2022-11-15T08:37:08;10.50;99.90
17421;DHT22;8828;48.800;9.540;2022-11-15T08:39:36;10.60;99.90
17421;DHT22;8828;48.800;9.540;2022-11-15T08:42:04;10.80;99.90
17421;DHT22;8828;48.800;9.540;2022-11-15T08:44:32;10.90;99.90
17421;DHT22;8828;48.800;9.540;2022-11-15T08:47:01;11.00;99.90
17421;DHT22;8828;48.800;9.540;2022-11-15T08:49:29;11.10;99.90
17421;DHT22;8828;48.800;9.540;2022-11-15T08:51:57;11.20;99.90
17421;DHT22;8828;48.800;9.540;2022-11-15T08:54:25;11.40;99.90
17421;DHT22;8828;48.800;9.540;2022-11-15T08:56:53;11.40;99.90
17421;DHT22;8828;48.800;9.540;2022-11-15T08:59:21;11.50;99.90
17421;DHT22;8828;48.800;9.540;2022-11-15T09:01:49;11.50;99.90
17421;DHT22;8828;48.800;9.540;2022-11-15T09:04:18;11.60;99.90
17421;DHT22;8828;48.800;9.540;2022-11-15T09:06:46;11.60;99.90
17421;DHT22;8828;48.800;9.540;2022-11-15T09:09:14;11.60;99.90
17421;DHT22;8828;48.800;9.540;2022-11-15T09:11:42;11.60;99.90
17421;DHT22;8828;48.800;9.540;2022-11-15T09:14:11;11.60;99.90
17421;DHT22;8828;48.800;9.540;2022-11-15T09:16:39;11.70;99.90
17421;DHT22;8828;48.800;9.540;2022-11-15T09:19:06;11.80;99.90
17421;DHT22;8828;48.800;9.540;2022-11-15T09:21:39;11.90;99.90
17421;DHT22;8828;48.800;9.540;2022-11-15T09:24:07;12.10;99.90
17421;DHT22;8828;48.800;9.540;2022-11-15T09:26:35;12.40;99.90
17421;DHT22;8828;48.800;9.540;2022-11-15T09:29:03;12.60;99.90
17421;DHT22;8828;48.800;9.540;2022-11-15T09:31:31;12.90;99.90
17421;DHT22;8828;48.800;9.540;2022-11-15T09:33:59;13.10;99.90
17421;DHT22;8828;48.800;9.540;2022-11-15T09:36:27;13.20;99.90
17421;DHT22;8828;48.800;9.540;2022-11-15T09:38:57;13.30;99.90
17421;DHT22;8828;48.800;9.540;2022-11-15T09:41:54;13.50;99.90
17421;DHT22;8828;48.800;9.540;2022-11-15T09:44:41;13.70;99.90
17421;DHT22;8828;48.800;9.540;2022-11-15T09:47:32;13.80;99.90
17421;DHT22;8828;48.800;9.540;2022-11-15T09:50:10;13.90;99.90
17421;DHT22;8828;48.800;9.540;2022-11-15T09:52:43;13.90;99.90
17421;DHT22;8828;48.800;9.540;2022-11-15T09:55:14;14.00;99.90
17421;DHT22;8828;48.800;9.540;2022-11-15T09:57:53;14.00;99.90
17421;DHT22;8828;48.800;9.540;2022-11-15T10:00:27;13.90;99.90
17421;DHT22;8828;48.800;9.540;2022-11-15T10:03:16;13.90;99.90
17421;DHT22;8828;48.800;9.540;2022-11-15T10:05:47;14.20;99.90
17421;DHT22;8828;48.800;9.540;2022-11-15T10:08:29;14.40;99.90
17421;DHT22;8828;48.800;9.540;2022-11-15T10:11:03;14.60;99.90
17421;DHT22;8828;48.800;9.540;2022-11-15T10:13:52;14.70;99.90
17421;DHT22;8828;48.800;9.540;2022-11-15T10:16:37;15.70;99.90
17421;DHT22;8828;48.800;9.540;2022-11-15T10:19:16;17.00;99.90
17421;DHT22;8828;48.800;9.540;2022-11-15T10:22:05;18.10;99.90
17421;DHT22;8828;48.800;9.540;2022-11-15T10:24:43;18.80;99.90
17421;DHT22;8828;48.800;9.540;2022-11-15T10:27:14;18.90;99.90
17421;DHT22;8828;48.800;9.540;2022-11-15T10:29:43;18.80;99.90
17421;DHT22;8828;48.800;9.540;2022-11-15T10:32:13;18.70;99.90
17421;DHT22;8828;48.800;9.540;2022-11-15T10:34:41;18.50;99.90
17421;DHT22;8828;48.800;9.540;2022-11-15T10:37:09;18.40;99.90
17421;DHT22;8828;48.800;9.540;2022-11-15T10:39:37;18.30;99.90
17421;DHT22;8828;48.800;9.540;2022-11-15T10:42:18;18.00;99.90
17421;DHT22;8828;48.800;9.540;2022-11-15T10:44:52;17.70;99.90
17421;DHT22;8828;48.800;9.540;2022-11-15T10:47:23;17.30;99.90
17421;DHT22;8828;48.800;9.540;2022-11-15T10:50:04;17.10;99.90
17421;DHT22;8828;48.800;9.540;2022-11-15T10:52:34;16.90;99.90
17421;DHT22;8828;48.800;9.540;2022-11-15T10:55:19;16.70;99.90
17421;DHT22;8828;48.800;9.540;2022-11-15T10:57:51;16.40;99.90
17421;DHT22;8828;48.800;9.540;2022-11-15T11:00:32;16.20;99.90
17421;DHT22;8828;48.800;9.540;2022-11-15T11:03:02;15.90;99.90
17421;DHT22;8828;48.800;9.540;2022-11-15T11:05:32;16.00;99.90
17421;DHT22;8828;48.800;9.540;2022-11-15T11:08:21;16.00;99.90
17421;DHT22;8828;48.800;9.540;2022-11-15T11:10:53;16.00;99.90
17421;DHT22;8828;48.800;9.540;2022-11-15T11:13:30;16.10;99.90
17421;DHT22;8828;48.800;9.540;2022-11-15T11:16:26;16.10;99.90
17421;DHT22;8828;48.800;9.540;2022-11-15T11:19:14;16.20;99.90
17421;DHT22;8828;48.800;9.540;2022-11-15T11:21:49;16.10;99.90
17421;DHT22;8828;48.800;9.540;2022-11-15T11:24:25;16.20;99.90
17421;DHT22;8828;48.800;9.540;2022-11-15T11:27:09;16.30;99.90
17421;DHT22;8828;48.800;9.540;2022-11-15T11:29:55;16.40;99.90
17421;DHT22;8828;48.800;9.540;2022-11-15T11:32:36;16.50;99.90
17421;DHT22;8828;48.800;9.540;2022-11-15T11:35:11;16.50;99.90
17421;DHT22;8828;48.800;9.540;2022-11-15T11:37:45;16.30;99.90
17421;DHT22;8828;48.800;9.540;2022-11-15T11:40:22;16.10;99.90
17421;DHT22;8828;48.800;9.540;2022-11-15T11:42:55;15.90;99.90
17421;DHT22;8828;48.800;9.540;2022-11-15T11:45:44;15.70;99.90
17421;DHT22;8828;48.800;9.540;2022-11-15T11:48:23;15.50;99.90
17421;DHT22;8828;48.800;9.540;2022-11-15T11:51:00;15.30;99.90
17421;DHT22;8828;48.800;9.540;2022-11-15T11:53:32;15.20;99.90
17421;DHT22;8828;48.800;9.540;2022-11-15T11:56:07;15.20;99.90
17421;DHT22;8828;48.800;9.540;2022-11-15T11:58:43;15.10;99.90
17421;DHT22;8828;48.800;9.540;2022-11-15T12:01:16;15.10;99.90
17421;DHT22;8828;48.800;9.540;2022-11-15T12:03:48;15.00;99.90
17421;DHT22;8828;48.800;9.540;2022-11-15T12:06:23;15.00;99.90
17421;DHT22;8828;48.800;9.540;2022-11-15T12:09:00;14.80;99.90
17421;DHT22;8828;48.800;9.540;2022-11-15T12:11:34;14.80;99.90
17421;DHT22;8828;48.800;9.540;2022-11-15T12:14:08;14.70;99.90
17421;DHT22;8828;48.800;9.540;2022-11-15T12:16:42;14.70;99.90
17421;DHT22;8828;48.800;9.540;2022-11-15T12:19:10;14.80;99.90
17421;DHT22;8828;48.800;9.540;2022-11-15T12:21:43;14.80;99.90
17421;DHT22;8828;48.800;9.540;2022-11-15T12:24:16;14.80;99.90
17421;DHT22;8828;48.800;9.540;2022-11-15T12:26:48;14.80;99.90
17421;DHT22;8828;48.800;9.540;2022-11-15T12:29:21;14.90;99.90
17421;DHT22;8828;48.800;9.540;2022-11-15T12:31:54;14.90;99.90
17421;DHT22;8828;48.800;9.540;2022-11-15T12:34:36;15.10;99.90
17421;DHT22;8828;48.800;9.540;2022-11-15T12:40:28;15.50;99.90
17421;DHT22;8828;48.800;9.540;2022-11-15T12:42:59;15.50;99.90
17421;DHT22;8828;48.800;9.540;2022-11-15T12:45:29;15.50;99.90
17421;DHT22;8828;48.800;9.540;2022-11-15T12:51:01;15.30;99.90
17421;DHT22;8828;48.800;9.540;2022-11-15T12:53:30;15.10;99.90
17421;DHT22;8828;48.800;9.540;2022-11-15T12:56:17;14.90;99.90
17421;DHT22;8828;48.800;9.540;2022-11-15T12:58:47;14.80;99.90
17421;DHT22;8828;48.800;9.540;2022-11-15T13:01:52;14.60;99.90
17421;DHT22;8828;48.800;9.540;2022-11-15T13:04:23;14.50;99.90
17421;DHT22;8828;48.800;9.540;2022-11-15T13:06:55;14.40;99.90
17421;DHT22;8828;48.800;9.540;2022-11-15T13:12:51;14.10;99.90
17421;DHT22;8828;48.800;9.540;2022-11-15T13:15:35;14.10;99.90
17421;DHT22;8828;48.800;9.540;2022-11-15T13:18:30;14.00;99.90
17421;DHT22;8828;48.800;9.540;2022-11-15T13:21:00;13.90;99.90
17421;DHT22;8828;48.800;9.540;2022-11-15T13:23:53;13.90;99.90
17421;DHT22;8828;48.800;9.540;2022-11-15T13:26:21;13.80;99.90
17421;DHT22;8828;48.800;9.540;2022-11-15T13:28:51;13.80;99.90
17421;DHT22;8828;48.800;9.540;2022-11-15T13:31:25;13.70;99.90
17421;DHT22;8828;48.800;9.540;2022-11-15T13:33:56;13.70;99.90
17421;DHT22;8828;48.800;9.540;2022-11-15T13:36:26;13.60;99.90
17421;DHT22;8828;48.800;9.540;2022-11-15T13:38:58;13.60;99.90
17421;DHT22;8828;48.800;9.540;2022-11-15T13:41:28;13.60;99.90
17421;DHT22;8828;48.800;9.540;2022-11-15T13:43:57;13.60;99.90
17421;DHT22;8828;48.800;9.540;2022-11-15T13:46:27;13.60;99.90
17421;DHT22;8828;48.800;9.540;2022-11-15T13:48:57;13.60;99.90
17421;DHT22;8828;48.800;9.540;2022-11-15T13:51:36;13.60;99.90
17421;DHT22;8828;48.800;9.540;2022-11-15T13:54:23;13.60;99.90
17421;DHT22;8828;48.800;9.540;2022-11-15T13:56:55;13.60;99.90
17421;DHT22;8828;48.800;9.540;2022-11-15T13:59:25;13.60;99.90
17421;DHT22;8828;48.800;9.540;2022-11-15T14:01:54;13.60;99.90
17421;DHT22;8828;48.800;9.540;2022-11-15T14:04:25;13.50;99.90
17421;DHT22;8828;48.800;9.540;2022-11-15T14:06:57;13.60;99.90
17421;DHT22;8828;48.800;9.540;2022-11-15T14:09:33;13.50;99.90
17421;DHT22;8828;48.800;9.540;2022-11-15T14:12:19;13.50;99.90
17421;DHT22;8828;48.800;9.540;2022-11-15T14:14:49;13.50;99.90
17421;DHT22;8828;48.800;9.540;2022-11-15T14:17:20;13.50;99.90
17421;DHT22;8828;48.800;9.540;2022-11-15T14:19:50;13.50;99.90
17421;DHT22;8828;48.800;9.540;2022-11-15T14:22:20;13.40;99.90
17421;DHT22;8828;48.800;9.540;2022-11-15T14:28:12;13.40;99.90
17421;DHT22;8828;48.800;9.540;2022-11-15T14:30:43;13.40;99.90
17421;DHT22;8828;48.800;9.540;2022-11-15T14:33:23;13.40;99.90
17421;DHT22;8828;48.800;9.540;2022-11-15T14:35:52;13.40;99.90
17421;DHT22;8828;48.800;9.540;2022-11-15T14:38:21;13.40;99.90
17421;DHT22;8828;48.800;9.540;2022-11-15T14:40:49;13.30;99.90
17421;DHT22;8828;48.800;9.540;2022-11-15T14:43:19;13.30;99.90
17421;DHT22;8828;48.800;9.540;2022-11-15T14:45:47;13.30;99.90
17421;DHT22;8828;48.800;9.540;2022-11-15T14:48:15;13.30;99.90
17421;DHT22;8828;48.800;9.540;2022-11-15T14:50:43;13.30;99.90
17421;DHT22;8828;48.800;9.540;2022-11-15T14:53:13;13.20;99.90
17421;DHT22;8828;48.800;9.540;2022-11-15T14:55:42;13.20;99.90
17421;DHT22;8828;48.800;9.540;2022-11-15T14:58:11;13.10;99.90
17421;DHT22;8828;48.800;9.540;2022-11-15T15:00:41;13.10;99.90
17421;DHT22;8828;48.800;9.540;2022-11-15T15:03:09;13.10;99.90
17421;DHT22;8828;48.800;9.540;2022-11-15T15:05:39;13.10;99.90
17421;DHT22;8828;48.800;9.540;2022-11-15T15:08:08;13.00;99.90
17421;DHT22;8828;48.800;9.540;2022-11-15T15:10:38;13.00;99.90
17421;DHT22;8828;48.800;9.540;2022-11-15T15:13:15;13.00;99.90
17421;DHT22;8828;48.800;9.540;2022-11-15T15:15:45;13.00;99.90
17421;DHT22;8828;48.800;9.540;2022-11-15T15:18:13;12.90;99.90
17421;DHT22;8828;48.800;9.540;2022-11-15T15:20:43;13.00;99.90
17421;DHT22;8828;48.800;9.540;2022-11-15T15:23:15;12.90;99.90
17421;DHT22;8828;48.800;9.540;2022-11-15T15:25:44;12.90;99.90
17421;DHT22;8828;48.800;9.540;2022-11-15T15:28:13;12.80;99.90
17421;DHT22;8828;48.800;9.540;2022-11-15T15:30:41;12.80;99.90
17421;DHT22;8828;48.800;9.540;2022-11-15T15:33:10;12.80;99.90
17421;DHT22;8828;48.800;9.540;2022-11-15T15:35:38;12.80;99.90
17421;DHT22;8828;48.800;9.540;2022-11-15T15:38:06;12.80;99.90
17421;DHT22;8828;48.800;9.540;2022-11-15T15:40:36;12.70;99.90
17421;DHT22;8828;48.800;9.540;2022-11-15T15:43:03;12.70;99.90
17421;DHT22;8828;48.800;9.540;2022-11-15T15:45:36;12.70;99.90
17421;DHT22;8828;48.800;9.540;2022-11-15T15:48:05;12.70;99.90
17421;DHT22;8828;48.800;9.540;2022-11-15T15:50:35;12.70;99.90
17421;DHT22;8828;48.800;9.540;2022-11-15T15:53:04;12.60;99.90
17421;DHT22;8828;48.800;9.540;2022-11-15T15:55:32;12.60;99.90
17421;DHT22;8828;48.800;9.540;2022-11-15T15:58:00;12.60;99.90
17421;DHT22;8828;48.800;9.540;2022-11-15T16:00:28;12.60;99.90
17421;DHT22;8828;48.800;9.540;2022-11-15T16:02:56;12.50;99.90
17421;DHT22;8828;48.800;9.540;2022-11-15T16:05:25;12.50;99.90
17421;DHT22;8828;48.800;9.540;2022-11-15T16:07:54;12.50;99.90
17421;DHT22;8828;48.800;9.540;2022-11-15T16:10:24;12.50;99.90
17421;DHT22;8828;48.800;9.540;2022-11-15T16:12:53;12.50;99.90
17421;DHT22;8828;48.800;9.540;2022-11-15T16:15:23;12.40;99.90
17421;DHT22;8828;48.800;9.540;2022-11-15T16:17:52;12.40;99.90
17421;DHT22;8828;48.800;9.540;2022-11-15T16:20:34;12.40;99.90
17421;DHT22;8828;48.800;9.540;2022-11-15T16:23:05;12.40;99.90
17421;DHT22;8828;48.800;9.540;2022-11-15T16:25:39;12.40;99.90
17421;DHT22;8828;48.800;9.540;2022-11-15T16:28:18;12.40;99.90
17421;DHT22;8828;48.800;9.540;2022-11-15T16:30:46;12.40;99.90
17421;DHT22;8828;48.800;9.540;2022-11-15T16:33:22;12.40;99.90
17421;DHT22;8828;48.800;9.540;2022-11-15T16:35:50;12.40;99.90
17421;DHT22;8828;48.800;9.540;2022-11-15T16:38:20;12.30;99.90
17421;DHT22;8828;48.800;9.540;2022-11-15T16:40:48;12.30;99.90
17421;DHT22;8828;48.800;9.540;2022-11-15T16:43:16;12.30;99.90